Terminal Aerodrome Forecast
Issued by NWS Duluth, MN

Home | Current Version | Previous Version | Text Only | Print | Product List | Glossary On
Versions: 1 2 3 4 5 6 7 8 9 10 11 12 13 14 15 16 17 18 19 20 21 22 23 24 25 26 27 28 29 30
136
FTUS43 KDLH 230309 AAC
TAFDLH
TAF AMD
KDLH 230309Z 2303/2324 34003KT P6SM VCSH SCT026 BKN035
      TEMPO 2303/2307 BKN025
     FM230800 VRB03KT P6SM VCSH BKN020
     FM231100 35004KT P6SM VCSH BKN008
     FM231400 04006KT P6SM VCSH OVC015
     FM231800 05010KT P6SM VCSH BKN035=

USA.gov is the U.S. government's official web portal to all federal, state and local government web resources and services.